Terminal Aerodrome Forecast
Issued by NWS

Home | Current Version | Previous Version | Text Only | Print | Product List | Glossary On
Versions: 1 2 3 4 5 6 7 8 9 10 11 12 13 14 15 16 17 18 19 20 21
390
FTUS46 KEKA 022350
TAFCEC
TAF
KCEC 022350Z 0300/0324 35006KT P6SM BKN080
     FM030400 09003KT P6SM BKN050
     FM031000 VRB03KT P6SM -DZ SCT015 OVC025
     FM031500 02005KT P6SM -RA SCT015 OVC025
     FM031900 34008KT P6SM SCT025 SCT250=

USA.gov is the U.S. government's official web portal to all federal, state and local government web resources and services.